createdAt,value
2023-04-19T00:01:16.571Z,12.80
2023-04-19T00:03:43.434Z,12.70
2023-04-19T00:06:15.000Z,12.80
2023-04-19T00:08:44.523Z,12.70
2023-04-19T00:11:11.277Z,12.80
2023-04-19T00:13:38.395Z,12.80
2023-04-19T00:16:06.025Z,12.80
2023-04-19T00:18:32.683Z,12.80
2023-04-19T00:20:59.961Z,12.70
2023-04-19T00:23:26.694Z,12.70
2023-04-19T00:25:53.352Z,12.70
2023-04-19T00:28:20.000Z,12.70
2023-04-19T00:30:46.694Z,12.70
2023-04-19T00:33:13.455Z,12.60
2023-04-19T00:35:44.655Z,12.60
2023-04-19T00:38:11.409Z,12.60
2023-04-19T00:40:43.186Z,12.50
2023-04-19T00:43:09.993Z,12.50
2023-04-19T00:45:36.901Z,12.50
2023-04-19T00:48:06.628Z,12.40
2023-04-19T00:50:36.078Z,12.40
2023-04-19T00:53:03.108Z,12.40
2023-04-19T00:55:32.803Z,12.40
2023-04-19T00:58:00.150Z,12.30
2023-04-19T01:00:26.898Z,12.30
2023-04-19T01:02:55.455Z,12.30
2023-04-19T01:05:22.228Z,12.20
2023-04-19T01:07:48.903Z,12.10
2023-04-19T01:10:16.439Z,12.10
2023-04-19T01:12:43.100Z,12.00
2023-04-19T01:15:10.227Z,12.00
2023-04-19T01:17:37.648Z,12.00
2023-04-19T01:20:08.756Z,11.90
2023-04-19T01:22:37.599Z,11.80
2023-04-19T01:25:07.500Z,11.80
2023-04-19T01:27:34.266Z,11.70
2023-04-19T01:30:00.912Z,11.70
2023-04-19T01:32:27.695Z,11.70
2023-04-19T01:37:21.517Z,11.70
2023-04-19T01:39:48.293Z,11.70
2023-04-19T01:42:15.107Z,11.60
2023-04-19T01:44:41.928Z,11.50
2023-04-19T01:47:08.715Z,11.50
2023-04-19T01:49:35.717Z,11.50
2023-04-19T01:52:02.488Z,11.40
2023-04-19T01:54:29.261Z,11.30
2023-04-19T01:59:28.372Z,11.30
2023-04-19T07:34:51.820Z,13.00
2023-04-19T07:37:21.275Z,13.00
2023-04-19T07:39:50.464Z,13.10
2023-04-19T07:42:17.241Z,13.10
2023-04-19T07:44:44.207Z,13.20
2023-04-19T07:47:10.880Z,13.30
2023-04-19T07:49:38.362Z,13.30
2023-04-19T07:52:07.760Z,13.40
2023-04-19T07:54:39.186Z,13.50
2023-04-19T07:57:06.106Z,13.70
2023-04-19T07:59:35.041Z,13.80
2023-04-19T08:02:01.968Z,13.80
2023-04-19T08:06:59.367Z,13.80
2023-04-19T08:09:26.305Z,14.10
2023-04-19T08:11:53.593Z,14.00
2023-04-19T08:14:34.571Z,14.00
2023-04-19T08:19:34.399Z,14.10
2023-04-19T08:22:03.732Z,14.20
2023-04-19T08:24:32.705Z,14.30
2023-04-19T08:27:01.998Z,14.30
2023-04-19T08:29:28.740Z,14.40
2023-04-19T08:31:57.721Z,14.30
2023-04-19T08:34:26.884Z,14.30
2023-04-19T08:37:03.340Z,14.20
2023-04-19T08:39:34.904Z,14.10
2023-04-19T08:47:56.062Z,14.50
2023-04-19T08:50:33.553Z,14.60
2023-04-19T08:53:16.476Z,14.80
2023-04-19T08:58:32.821Z,14.80
2023-04-19T09:01:12.815Z,14.80
2023-04-19T09:03:59.425Z,14.90
2023-04-19T09:06:37.440Z,15.00
2023-04-19T09:11:50.762Z,15.20
2023-04-19T09:14:19.577Z,15.20
2023-04-19T09:16:47.024Z,15.10
2023-04-19T09:19:23.122Z,14.90
2023-04-19T09:21:51.889Z,15.00
2023-04-19T09:24:18.857Z,15.30
2023-04-19T09:26:57.968Z,15.40
2023-04-19T09:29:25.368Z,15.50
2023-04-19T09:31:59.394Z,15.70
2023-04-19T09:34:28.183Z,15.90
2023-04-19T09:37:08.388Z,15.90
2023-04-19T09:39:38.522Z,16.00
2023-04-19T09:42:05.208Z,16.10
2023-04-19T09:47:24.132Z,15.90
2023-04-19T09:50:19.235Z,16.00
2023-04-19T09:52:52.307Z,15.90
2023-04-19T09:55:27.917Z,15.90
2023-04-19T09:57:55.424Z,15.90
2023-04-19T10:00:23.127Z,15.80
2023-04-19T10:02:57.954Z,15.50
2023-04-19T10:05:25.724Z,15.10
2023-04-19T10:07:56.683Z,15.30
2023-04-19T10:15:47.230Z,15.70
2023-04-19T10:18:18.477Z,15.60
2023-04-19T10:20:54.333Z,15.70
2023-04-19T10:23:24.132Z,15.90
2023-04-19T10:25:55.538Z,15.80
2023-04-19T10:28:24.873Z,15.80
2023-04-19T10:30:57.182Z,15.80
2023-04-19T10:33:28.408Z,16.00
2023-04-19T10:35:59.643Z,16.00
2023-04-19T10:38:49.398Z,16.00
2023-04-19T10:43:54.922Z,16.70
2023-04-19T10:46:21.638Z,16.80
2023-04-19T10:48:57.948Z,16.60
2023-04-19T10:51:28.713Z,16.50
2023-04-19T10:54:03.658Z,16.60
2023-04-19T10:56:35.363Z,16.90
2023-04-19T10:59:02.331Z,17.00
2023-04-19T11:01:38.107Z,17.00
2023-04-19T11:04:06.063Z,16.90
2023-04-19T11:06:33.999Z,16.70
2023-04-19T11:09:02.727Z,16.60
2023-04-19T11:11:32.992Z,16.70
2023-04-19T11:14:02.438Z,16.80
2023-04-19T11:19:04.953Z,16.80
2023-04-19T11:21:33.908Z,16.80
2023-04-19T11:24:10.947Z,17.00
2023-04-19T11:26:37.691Z,16.90
2023-04-19T11:29:06.205Z,16.90
2023-04-19T11:31:35.605Z,17.00
2023-04-19T11:34:06.284Z,17.00
2023-04-19T11:36:36.643Z,17.10
2023-04-19T11:39:07.480Z,17.00
2023-04-19T11:41:39.491Z,17.10
2023-04-19T11:44:22.871Z,17.10
2023-04-19T11:47:07.489Z,17.10
2023-04-19T11:49:34.467Z,17.20
2023-04-19T11:52:06.484Z,17.10
2023-04-19T11:54:34.005Z,17.00
2023-04-19T11:57:06.064Z,17.00
2023-04-19T11:59:34.546Z,17.00
2023-04-19T12:02:09.301Z,16.90
2023-04-19T12:04:36.806Z,17.00
2023-04-19T12:07:07.033Z,16.80
2023-04-19T12:09:35.846Z,16.90
2023-04-19T12:12:04.981Z,16.90
2023-04-19T12:14:31.901Z,17.00
2023-04-19T12:17:07.994Z,17.00
2023-04-19T12:19:37.196Z,16.80
2023-04-19T12:22:17.311Z,16.70
2023-04-19T12:24:44.123Z,16.60
2023-04-19T12:27:13.204Z,16.70
2023-04-19T12:29:42.237Z,16.70
2023-04-19T12:32:10.861Z,16.70
2023-04-19T12:34:37.619Z,16.60
2023-04-19T12:37:06.842Z,16.70
2023-04-19T12:39:35.885Z,16.70
2023-04-19T12:42:02.867Z,16.70
2023-04-19T12:44:29.517Z,16.80
2023-04-19T12:46:57.741Z,16.70
2023-04-19T12:49:24.621Z,16.70
2023-04-19T12:51:55.229Z,16.80
2023-04-19T12:54:23.945Z,16.80
2023-04-19T12:56:52.801Z,16.70
2023-04-19T12:59:19.647Z,16.60
2023-04-19T13:01:50.934Z,16.70
2023-04-19T13:04:20.565Z,16.60
2023-04-19T13:06:49.970Z,16.70
2023-04-19T13:09:16.644Z,16.80
2023-04-19T13:11:43.397Z,16.70
2023-04-19T13:14:10.280Z,16.60
2023-04-19T13:16:37.014Z,16.40
2023-04-19T13:19:05.967Z,16.40
2023-04-19T13:21:34.939Z,16.60
2023-04-19T13:24:01.622Z,16.80
2023-04-19T13:26:28.852Z,17.00
2023-04-19T13:28:56.267Z,17.30
2023-04-19T14:00:54.278Z,18.10
2023-04-19T14:03:23.276Z,18.50
2023-04-19T14:05:50.193Z,18.50
2023-04-19T14:08:16.853Z,18.40
2023-04-19T14:10:43.676Z,18.50
2023-04-19T14:13:10.524Z,18.80
2023-04-19T14:15:37.261Z,19.40
2023-04-19T14:18:06.208Z,19.70
2023-04-19T14:20:33.099Z,20.00
2023-04-19T14:32:49.806Z,20.90
2023-04-19T14:35:16.563Z,21.80
2023-04-19T14:37:43.442Z,22.10
2023-04-19T14:42:42.811Z,23.80
2023-04-19T14:45:10.199Z,24.10
2023-04-19T14:47:36.952Z,24.20
2023-04-19T14:52:31.362Z,23.80
2023-04-19T14:57:29.826Z,21.90
2023-04-19T15:00:00.967Z,21.90
2023-04-19T15:02:28.159Z,21.70
2023-04-19T15:04:55.292Z,21.20
2023-04-19T15:07:22.217Z,21.20
2023-04-19T15:09:49.081Z,21.50
2023-04-19T15:12:15.872Z,22.90
2023-04-19T15:14:42.663Z,22.60
2023-04-19T15:17:09.331Z,22.60
2023-04-19T15:19:38.958Z,22.70
2023-04-19T15:22:06.240Z,22.50
2023-04-19T15:24:35.084Z,22.80
2023-04-19T15:27:03.999Z,22.80
2023-04-19T15:29:32.889Z,23.70
2023-04-19T15:32:02.861Z,23.60
2023-04-19T15:34:31.703Z,23.10
2023-04-19T15:36:58.462Z,22.30
2023-04-19T15:39:25.684Z,21.70
2023-04-19T15:41:52.385Z,21.40
2023-04-19T15:44:21.405Z,21.00
2023-04-19T15:46:48.139Z,20.60
2023-04-19T15:49:15.001Z,20.40
2023-04-19T15:51:41.914Z,20.30
2023-04-19T15:54:12.119Z,20.00
2023-04-19T15:56:38.777Z,19.60
2023-04-19T15:59:05.591Z,19.50
2023-04-19T16:01:32.349Z,19.60
2023-04-19T16:03:59.259Z,19.30
2023-04-19T16:08:54.068Z,17.60
2023-04-19T16:11:23.295Z,17.60
2023-04-19T16:13:50.012Z,17.40
2023-04-19T16:16:16.723Z,17.40
2023-04-19T16:18:46.984Z,17.20
2023-04-19T16:21:15.944Z,16.50
2023-04-19T16:23:42.601Z,16.40
2023-04-19T16:43:22.484Z,15.60
2023-04-19T16:45:51.437Z,15.40
2023-04-19T17:47:27.535Z,14.30
2023-04-19T17:50:08.350Z,14.30
2023-04-19T17:52:35.600Z,14.10
2023-04-19T17:55:04.507Z,14.00
2023-04-19T17:57:33.706Z,13.80
2023-04-19T18:00:06.874Z,13.90
2023-04-19T18:02:34.835Z,13.80
2023-04-19T18:05:01.779Z,13.70
2023-04-19T18:07:28.832Z,13.80
2023-04-19T18:09:55.600Z,13.70
2023-04-19T18:12:23.113Z,13.70
2023-04-19T18:14:57.035Z,13.70
2023-04-19T18:17:23.884Z,13.70
2023-04-19T18:19:51.106Z,13.70
2023-04-19T18:22:17.785Z,13.50
2023-04-19T18:24:46.831Z,13.50
2023-04-19T18:34:35.721Z,13.20
2023-04-19T18:39:31.706Z,13.10
2023-04-19T18:42:01.832Z,13.10
2023-04-19T18:47:15.835Z,13.00
2023-04-19T18:49:46.115Z,13.00
2023-04-19T18:52:24.730Z,12.90
2023-04-19T18:54:56.162Z,12.90
2023-04-19T18:57:26.583Z,12.90
2023-04-19T18:59:56.071Z,12.90
2023-04-19T19:02:27.074Z,12.90
2023-04-19T19:04:58.479Z,12.90
2023-04-19T19:10:16.077Z,12.90
2023-04-19T20:18:52.700Z,12.20
2023-04-19T20:23:49.532Z,11.60
2023-04-19T20:31:12.952Z,11.50
2023-04-19T20:33:39.655Z,11.40
2023-04-19T20:36:06.711Z,11.40
2023-04-19T20:38:34.498Z,11.30
2023-04-19T20:41:03.475Z,11.30
2023-04-19T20:43:30.374Z,11.30
2023-04-19T20:45:59.638Z,11.20
2023-04-19T20:48:26.358Z,11.20
2023-04-19T20:53:25.092Z,11.00
2023-04-19T20:55:51.992Z,11.10
2023-04-19T20:58:18.680Z,11.10
2023-04-19T22:02:29.612Z,10.60
2023-04-19T22:04:56.605Z,10.60
2023-04-19T22:12:18.832Z,10.40
2023-04-19T22:14:45.603Z,10.40
2023-04-19T22:17:14.569Z,10.30
2023-04-19T22:19:41.270Z,10.10
2023-04-19T22:22:12.864Z,10.10
2023-04-19T22:24:53.399Z,9.70
2023-04-19T22:27:27.391Z,9.60
2023-04-19T22:29:54.144Z,9.50
2023-04-19T22:32:20.930Z,9.30
2023-04-19T22:34:47.632Z,9.30
2023-04-19T22:37:14.372Z,9.20
2023-04-19T22:39:41.037Z,9.10
2023-04-19T22:42:07.812Z,9.00
2023-04-19T22:44:34.590Z,8.90
2023-04-19T22:47:01.327Z,8.90
2023-04-19T22:49:29.600Z,8.80
2023-04-19T22:51:59.612Z,8.70
2023-04-19T22:54:26.556Z,8.80
2023-04-19T22:56:53.229Z,8.80
2023-04-19T22:59:22.486Z,8.80
2023-04-19T23:01:51.832Z,8.90
2023-04-19T23:06:48.613Z,8.60
2023-04-19T23:09:15.924Z,8.50
2023-04-19T23:11:47.118Z,8.40
2023-04-19T23:14:13.942Z,8.40
2023-04-19T23:16:42.813Z,8.40
2023-04-19T23:19:09.525Z,8.30
2023-04-19T23:21:36.343Z,8.40
2023-04-19T23:24:03.188Z,8.50
2023-04-19T23:26:30.177Z,8.70
2023-04-19T23:28:56.901Z,8.60
2023-04-19T23:31:23.726Z,8.50
2023-04-19T23:33:50.555Z,8.50
2023-04-19T23:36:19.501Z,8.40
2023-04-19T23:38:46.187Z,8.50
2023-04-19T23:41:15.673Z,8.50
2023-04-19T23:43:42.329Z,8.40
2023-04-19T23:46:11.499Z,8.30
2023-04-19T23:48:38.366Z,8.10
